Main page
METAR-TAF:

METAR-TAF

Airports :

Córdoba Airport

Córdoba, Spain

latitude: 37-51N, longitude: 004-51W, elevation: 90 m

Current weather observation

The report was made 22 minutes ago, at 04:00 UTC
Calm wind
Temperature 12°C
Humidity 94%
Pressure 1017 hPa
Visibility 10 km or more

METAR: LEBA 170400Z AUTO 00000KT 9999 NCD 12/11 Q1017

Time: 06:22 (04:22 UTC)

Forecast

The report was made 2 hours and 22 minutes ago, at 02:00 UTC
Forecast valid from 17 at 03 UTC to 17 at 12 UTC
Wind 2 kt from variable directions
Visibility 10 km or more
no clouds below 1500 m and no cumulonimbus
Probability 40% :
Temporary
from 17 at 03 UTC to 17 at 09 UTC
Visibility: 3000 m
Broken clouds at a height of 1000 ft
mist
Probability 30% :
Temporary
from 17 at 04 UTC to 17 at 08 UTC
Visibility: 0500 m
at a height of 100 ft
fog

TAF: LEBA 170200Z 1703/1712 VRB02KT CAVOK PROB40 TEMPO 1703/1709 3000 BR BKN010 PROB30 TEMPO 1704/1708 0500 FG VV001

Weather observations and forecasts of more than 4000 airports (METAR and TAF reports).

The available stations are represented by yellow and red dots on the map.

Hover mouse over dot to see the name of the station.

Then click to see weather observations and forecasts.

To change the map : click on the green buttons with a black cross to zoom in, on the green button with a dash to zoom out, or on the green arrows for adjacent maps.


METAR-TAF: